Time;durP1;ratioP1;P1;durP2;ratioP2;P2;SDS_P1;SDS_P2;PMS_P1;PMS_P2;Temp;Humidity;BMP_temperature;BMP_pressure;BME280_temperature;BME280_humidity;BME280_pressure;Samples;Min_cycle;Max_cycle;Signal;HPM_P1;HPM_P2
2022/01/02 00:01:36;;;;;;;20.70;6.95;;;11.10;99.90;;;;;;6152087;23;20040;-82
2022/01/02 00:04:03;;;;;;;12.68;6.65;;;11.10;99.90;;;;;;6152938;23;20040;-82
2022/01/02 00:06:32;;;;;;;17.30;7.07;;;11.10;99.90;;;;;;6139394;23;20041;-83
2022/01/02 00:09:04;;;;;;;12.43;6.30;;;11.10;99.90;;;;;;6125344;23;20446;-82
2022/01/02 00:11:31;;;;;;;14.00;6.32;;;11.10;99.90;;;;;;6098378;23;20021;-82
2022/01/02 00:14:06;;;;;;;16.05;6.63;;;11.10;99.90;;;;;;6100160;23;20014;-82
2022/01/02 00:16:34;;;;;;;17.85;6.57;;;11.10;99.90;;;;;;6124423;23;20325;-82
2022/01/02 00:19:08;;;;;;;14.50;8.38;;;11.20;99.90;;;;;;6098158;23;20435;-82
2022/01/02 00:21:41;;;;;;;13.70;6.23;;;11.10;99.90;;;;;;6097683;23;20029;-82
2022/01/02 00:24:12;;;;;;;15.43;6.57;;;11.30;99.90;;;;;;6098013;23;20109;-82
2022/01/02 00:26:42;;;;;;;18.33;6.65;;;11.10;99.90;;;;;;6098508;23;20100;-82
2022/01/02 00:29:09;;;;;;;19.17;6.60;;;11.50;99.90;;;;;;6099136;23;20013;-82
2022/01/02 00:31:35;;;;;;;14.00;6.75;;;11.20;99.90;;;;;;6121638;23;20065;-82
2022/01/02 00:34:07;;;;;;;16.75;6.43;;;11.20;99.90;;;;;;6123048;23;20020;-82
2022/01/02 00:36:33;;;;;;;12.60;6.85;;;11.20;99.90;;;;;;6098053;23;20510;-83
2022/01/02 00:38:59;;;;;;;18.73;6.75;;;11.20;99.90;;;;;;6122711;23;20052;-82
2022/01/02 00:41:44;;;;;;;14.40;6.35;;;11.20;99.90;;;;;;6098261;23;20477;-82
2022/01/02 00:44:33;;;;;;;15.40;6.53;;;11.20;99.90;;;;;;6122222;23;20100;-83
2022/01/02 00:47:07;;;;;;;13.43;7.03;;;11.30;99.90;;;;;;6121757;23;20088;-82
2022/01/02 00:49:39;;;;;;;12.27;6.90;;;11.30;99.90;;;;;;6122670;23;20357;-82
2022/01/02 00:52:12;;;;;;;16.65;7.38;;;11.30;99.90;;;;;;6122267;23;20025;-82
2022/01/02 00:54:43;;;;;;;21.10;6.88;;;11.30;99.90;;;;;;6123416;23;20029;-83
2022/01/02 00:57:15;;;;;;;23.35;7.00;;;11.50;99.90;;;;;;6098652;23;20049;-82
2022/01/02 01:00:11;;;;;;;14.88;7.00;;;11.30;99.90;;;;;;6098178;23;20489;-82
2022/01/02 01:02:47;;;;;;;17.35;7.10;;;11.30;99.90;;;;;;6009951;23;20019;-82
2022/01/02 01:05:18;;;;;;;15.10;7.20;;;11.40;99.90;;;;;;6009935;23;20359;-82
2022/01/02 01:07:48;;;;;;;13.73;6.80;;;11.30;99.90;;;;;;6032037;23;20389;-83
2022/01/02 01:10:14;;;;;;;21.02;7.40;;;11.40;99.90;;;;;;6009179;23;20023;-83
2022/01/02 01:12:40;;;;;;;20.77;8.07;;;11.20;99.90;;;;;;6010189;23;20025;-83
2022/01/02 01:15:08;;;;;;;18.60;7.57;;;11.30;99.90;;;;;;6033908;23;20094;-82
2022/01/02 01:17:37;;;;;;;19.42;7.70;;;11.30;99.90;;;;;;6009287;23;20094;-82
2022/01/02 01:20:06;;;;;;;21.88;8.57;;;11.20;99.90;;;;;;5986725;23;20019;-82
2022/01/02 01:22:31;;;;;;;15.70;7.15;;;12.00;99.90;;;;;;6010345;23;20026;-82
2022/01/02 01:24:57;;;;;;;17.85;7.07;;;11.30;99.90;;;;;;5986770;23;20019;-82
2022/01/02 01:27:24;;;;;;;18.98;8.00;;;11.20;99.90;;;;;;5986660;23;20023;-82
2022/01/02 01:29:49;;;;;;;15.90;7.78;;;12.00;99.90;;;;;;5986331;23;20022;-83
2022/01/02 01:32:15;;;;;;;23.67;7.93;;;11.30;99.90;;;;;;6009286;23;20019;-83
2022/01/02 01:34:41;;;;;;;18.13;8.25;;;11.30;99.90;;;;;;6009890;23;20067;-83
2022/01/02 01:37:06;;;;;;;14.30;7.45;;;11.20;99.90;;;;;;6010544;23;20110;-83
2022/01/02 01:39:32;;;;;;;20.35;8.02;;;12.00;99.90;;;;;;6066652;23;20045;-82
2022/01/02 01:42:06;;;;;;;19.35;8.68;;;11.30;99.90;;;;;;6119927;23;20021;-82
2022/01/02 01:47:13;;;;;;;23.02;8.90;;;11.50;99.90;;;;;;6120671;23;20025;-82
2022/01/02 01:49:39;;;;;;;20.50;8.30;;;11.20;99.90;;;;;;6122142;23;20013;-82
2022/01/02 01:52:05;;;;;;;18.80;8.55;;;11.20;99.90;;;;;;6122361;23;20045;-83
2022/01/02 01:54:31;;;;;;;19.27;8.93;;;11.20;99.90;;;;;;6123328;23;20041;-82
2022/01/02 01:56:56;;;;;;;21.92;8.45;;;11.20;99.90;;;;;;6121393;23;20021;-82
2022/01/02 01:59:23;;;;;;;22.95;9.15;;;11.20;99.90;;;;;;6121346;23;20014;-83
2022/01/02 02:01:49;;;;;;;18.88;8.93;;;11.20;99.90;;;;;;6120348;23;20017;-82
2022/01/02 02:04:18;;;;;;;20.15;9.45;;;11.20;99.90;;;;;;6119483;23;20018;-82
2022/01/02 02:06:45;;;;;;;23.27;9.45;;;11.10;99.90;;;;;;6153099;23;20450;-82
2022/01/02 02:09:11;;;;;;;26.63;9.93;;;11.10;99.90;;;;;;6154661;23;20025;-82
2022/01/02 02:11:39;;;;;;;22.90;9.70;;;11.20;99.90;;;;;;6155218;23;20024;-82
2022/01/02 02:14:06;;;;;;;24.25;9.95;;;11.20;99.90;;;;;;6156079;23;20024;-82
2022/01/02 02:16:36;;;;;;;22.33;9.23;;;11.20;99.90;;;;;;6182346;23;20102;-81
2022/01/02 02:19:02;;;;;;;18.70;10.00;;;11.10;99.90;;;;;;6184309;23;20079;-83
2022/01/02 02:21:44;;;;;;;23.08;10.07;;;11.60;99.90;;;;;;6132571;23;20019;-83
2022/01/02 02:24:42;;;;;;;19.80;9.77;;;11.20;99.90;;;;;;6131690;23;20317;-83
2022/01/02 02:38:58;;;;;;;;;;;;;;;;;;;;;
2022/01/02 02:42:13;;;;;;;28.85;11.48;;;10.60;99.90;;;;;;5869896;24;20037;-83
2022/01/02 03:13:54;;;;;;;30.10;11.52;;;10.90;99.90;;;;;;6217491;23;20029;-82
2022/01/02 03:24:51;;;;;;;;;;;;;;;;;;;;;
2022/01/02 03:27:24;;;;;;;24.67;12.23;;;10.80;99.90;;;;;;5989377;23;20496;-82
2022/01/02 03:30:56;;;;;;;32.15;12.73;;;10.90;99.90;;;;;;5989157;23;20026;-81
2022/01/02 03:33:32;;;;;;;29.30;12.98;;;10.80;99.90;;;;;;5971719;24;20342;-82
2022/01/02 03:36:47;;;;;;;30.58;12.25;;;10.80;99.90;;;;;;5985411;23;20024;-82
2022/01/02 03:39:44;;;;;;;35.97;13.27;;;11.00;99.90;;;;;;5961088;24;20016;-83
2022/01/02 03:42:50;;;;;;;30.30;12.27;;;10.40;99.90;;;;;;5961267;23;20012;-82
2022/01/02 03:45:33;;;;;;;30.25;12.95;;;10.80;99.90;;;;;;5936243;24;20028;-82
2022/01/02 03:48:07;;;;;;;26.60;13.00;;;10.40;99.90;;;;;;5991166;23;20019;-82
2022/01/02 03:50:38;;;;;;;33.45;12.65;;;10.80;99.90;;;;;;6007879;23;20023;-81
2022/01/02 03:53:11;;;;;;;36.33;13.10;;;10.80;99.90;;;;;;6057298;23;20299;-81
2022/01/02 03:55:46;;;;;;;28.95;12.45;;;10.80;99.90;;;;;;6103968;23;20125;-81
2022/01/02 03:58:14;;;;;;;30.98;13.27;;;10.90;99.90;;;;;;6103082;23;20021;-81
2022/01/02 04:00:40;;;;;;;31.88;12.80;;;10.70;99.90;;;;;;6102729;23;20017;-81
2022/01/02 04:03:09;;;;;;;27.77;12.60;;;11.10;99.90;;;;;;6079806;23;20021;-81
2022/01/02 04:06:13;;;;;;;30.73;12.77;;;11.60;99.90;;;;;;6121874;23;20086;-81
2022/01/02 04:09:12;;;;;;;26.58;12.32;;;10.90;99.90;;;;;;6030228;23;20084;-81
2022/01/02 04:12:19;;;;;;;30.13;12.85;;;10.50;99.90;;;;;;5984630;23;20103;-82
2022/01/02 04:34:34;;;;;;;29.27;11.30;;;10.50;99.90;;;;;;6013398;23;20072;-82
2022/01/02 04:37:37;;;;;;;22.20;11.38;;;11.00;99.90;;;;;;5981461;23;20015;-82
2022/01/02 04:40:03;;;;;;;23.92;9.68;;;11.00;99.90;;;;;;5884462;24;20086;-82
2022/01/02 04:42:49;;;;;;;34.17;11.40;;;11.10;99.90;;;;;;5877524;24;20009;-82
2022/01/02 04:45:35;;;;;;;30.20;10.85;;;11.60;99.90;;;;;;5871090;24;20013;-82
2022/01/02 04:48:19;;;;;;;29.63;11.20;;;10.60;99.90;;;;;;5895808;24;20093;-83
2022/01/02 04:50:59;;;;;;;29.25;11.13;;;11.30;99.90;;;;;;5873114;24;20021;-82
2022/01/02 04:53:47;;;;;;;26.65;11.55;;;11.00;99.90;;;;;;5873408;24;20108;-82
2022/01/02 04:56:14;;;;;;;33.38;11.23;;;11.00;99.90;;;;;;5873430;24;20061;-81
2022/01/02 04:58:40;;;;;;;28.65;10.00;;;12.00;99.90;;;;;;5873846;24;20049;-82
2022/01/02 05:01:11;;;;;;;34.10;11.10;;;11.60;99.90;;;;;;5872511;24;20017;-81
2022/01/02 05:03:41;;;;;;;28.08;11.45;;;11.80;99.90;;;;;;5919961;24;20024;-82
2022/01/02 05:06:07;;;;;;;26.35;9.68;;;11.10;99.90;;;;;;5923579;23;20477;-82
2022/01/02 05:08:33;;;;;;;30.33;10.27;;;11.20;99.90;;;;;;5958641;23;20079;-82
2022/01/02 05:10:59;;;;;;;25.20;9.60;;;11.20;99.90;;;;;;5982488;23;20476;-82
2022/01/02 05:13:25;;;;;;;31.60;10.10;;;12.00;99.90;;;;;;5958762;23;20026;-81
2022/01/02 05:15:51;;;;;;;30.38;10.07;;;11.20;99.90;;;;;;6088707;22;20008;-82
2022/01/02 05:18:16;;;;;;;29.17;10.18;;;11.20;99.90;;;;;;6271392;22;20011;-81
2022/01/02 05:20:46;;;;;;;26.08;9.65;;;11.70;99.90;;;;;;6272066;22;20015;-81
2022/01/02 05:23:15;;;;;;;27.77;9.98;;;11.20;99.90;;;;;;6272840;22;20332;-81
2022/01/02 05:25:40;;;;;;;33.08;9.80;;;11.60;99.90;;;;;;6246140;22;20343;-80
2022/01/02 05:28:06;;;;;;;26.42;9.15;;;11.10;99.90;;;;;;6271903;22;20022;-81
2022/01/02 05:30:32;;;;;;;31.70;9.02;;;11.30;99.90;;;;;;6271678;22;20026;-81
2022/01/02 05:32:58;;;;;;;30.20;8.98;;;11.20;99.90;;;;;;6271838;22;20031;-81
2022/01/02 05:35:23;;;;;;;26.58;8.57;;;12.10;99.90;;;;;;6247077;22;20092;-82
2022/01/02 05:37:49;;;;;;;28.13;9.18;;;11.40;99.90;;;;;;6272519;22;20011;-82
2022/01/02 05:40:15;;;;;;;33.88;9.35;;;11.20;99.90;;;;;;6272073;22;20015;-81
2022/01/02 05:42:40;;;;;;;29.77;8.13;;;11.20;99.90;;;;;;6272286;22;20047;-81
2022/01/02 05:45:25;;;;;;;20.95;7.35;;;11.40;99.90;;;;;;6272518;22;20015;-82
2022/01/02 05:47:50;;;;;;;27.40;8.02;;;11.30;99.90;;;;;;6271376;22;20038;-82
2022/01/02 05:50:18;;;;;;;26.20;8.57;;;11.30;99.90;;;;;;6245746;22;20016;-82
2022/01/02 05:52:44;;;;;;;25.75;7.65;;;11.30;99.90;;;;;;6273315;22;20382;-82
2022/01/02 05:55:10;;;;;;;24.80;7.25;;;11.30;99.90;;;;;;6270038;22;20024;-81
2022/01/02 05:57:36;;;;;;;27.73;8.27;;;11.30;99.90;;;;;;6246725;22;20015;-81
2022/01/02 06:00:04;;;;;;;22.90;7.15;;;11.30;99.90;;;;;;6272147;22;20451;-82
2022/01/02 06:02:31;;;;;;;35.42;8.43;;;11.30;99.90;;;;;;6272491;22;20008;-81
2022/01/02 06:04:58;;;;;;;27.27;7.93;;;11.30;99.90;;;;;;6248794;22;20281;-82
2022/01/02 06:07:24;;;;;;;24.83;7.63;;;11.30;99.90;;;;;;6247780;22;20090;-82
2022/01/02 06:09:49;;;;;;;27.00;7.53;;;11.30;99.90;;;;;;6273037;22;20081;-82
2022/01/02 06:12:26;;;;;;;22.00;7.32;;;11.30;99.90;;;;;;6246065;22;20049;-82
2022/01/02 06:14:52;;;;;;;26.77;7.38;;;11.30;99.90;;;;;;6247639;22;20046;-82
2022/01/02 06:17:17;;;;;;;23.38;7.30;;;11.30;99.90;;;;;;6246216;22;20011;-81
2022/01/02 06:19:43;;;;;;;24.42;7.47;;;11.40;99.90;;;;;;6272277;22;20018;-83
2022/01/02 06:22:09;;;;;;;18.92;6.90;;;11.30;99.90;;;;;;6239897;23;20570;-83
2022/01/02 06:24:41;;;;;;;23.20;7.22;;;11.30;99.90;;;;;;6189455;23;20016;-82
2022/01/02 06:27:14;;;;;;;21.90;7.18;;;11.30;99.90;;;;;;6189792;23;20075;-82
2022/01/02 06:29:51;;;;;;;23.45;7.13;;;11.30;99.90;;;;;;6190965;23;20024;-83
2022/01/02 06:32:32;;;;;;;26.85;7.70;;;11.30;99.90;;;;;;6187908;23;20042;-82
2022/01/02 06:34:58;;;;;;;24.33;7.18;;;11.40;99.90;;;;;;6189448;23;20424;-82
2022/01/02 06:37:24;;;;;;;25.90;7.30;;;11.70;99.90;;;;;;6189201;23;20016;-81
2022/01/02 06:39:49;;;;;;;28.88;7.55;;;12.00;99.90;;;;;;6189974;23;20436;-81
2022/01/02 06:42:18;;;;;;;24.92;7.40;;;11.90;99.90;;;;;;6213946;23;20008;-82
2022/01/02 06:44:44;;;;;;;22.50;6.97;;;11.40;99.90;;;;;;6189425;23;20361;-82
2022/01/02 06:47:10;;;;;;;26.20;7.22;;;11.40;99.90;;;;;;6213007;23;20023;-82
2022/01/02 06:49:40;;;;;;;24.77;7.40;;;11.40;99.90;;;;;;6213998;23;20020;-82
2022/01/02 06:52:06;;;;;;;23.02;6.80;;;11.30;99.90;;;;;;6216459;22;20012;-82
2022/01/02 06:54:40;;;;;;;26.00;6.60;;;11.40;99.90;;;;;;6245814;22;20081;-82
2022/01/02 06:57:15;;;;;;;20.73;6.20;;;11.40;99.90;;;;;;6246231;22;20015;-82
2022/01/02 06:59:47;;;;;;;20.13;6.20;;;11.40;99.90;;;;;;6246673;22;20098;-83
2022/01/02 07:02:50;;;;;;;23.45;5.57;;;11.40;99.90;;;;;;6245364;22;20023;-85
2022/01/02 07:05:16;;;;;;;18.42;5.35;;;11.40;99.90;;;;;;6245227;22;20015;-82
2022/01/02 07:07:47;;;;;;;20.70;5.75;;;11.70;99.90;;;;;;6246136;22;20331;-82
2022/01/02 07:10:36;;;;;;;17.80;5.25;;;11.80;99.90;;;;;;6245200;22;20022;-82
2022/01/02 07:13:27;;;;;;;23.63;5.05;;;11.50;99.90;;;;;;6245500;22;20038;-82
2022/01/02 07:16:19;;;;;;;19.90;5.13;;;11.50;99.90;;;;;;6240469;22;20073;-82
2022/01/02 07:19:03;;;;;;;14.90;4.88;;;11.50;99.90;;;;;;6208759;23;20020;-83
2022/01/02 07:21:29;;;;;;;20.33;4.95;;;12.50;99.90;;;;;;6184796;23;20021;-82
2022/01/02 07:23:56;;;;;;;24.48;4.80;;;11.60;99.90;;;;;;6184317;23;20444;-82
2022/01/02 07:26:22;;;;;;;16.45;3.97;;;11.60;99.90;;;;;;6158343;23;20031;-82
2022/01/02 07:29:01;;;;;;;15.68;4.28;;;11.90;99.90;;;;;;6183650;23;20021;-83
2022/01/02 07:35:06;;;;;;;16.25;4.55;;;11.30;99.90;;;;;;6163800;23;20112;-84
2022/01/02 07:41:41;;;;;;;17.08;4.38;;;11.80;99.90;;;;;;6037104;23;20023;-84
2022/01/02 07:47:53;;;;;;;14.93;3.88;;;11.70;99.90;;;;;;6206123;23;19912;-82
2022/01/02 07:50:18;;;;;;;14.25;5.00;;;12.00;99.90;;;;;;6245833;22;20074;-83
2022/01/02 07:52:44;;;;;;;14.90;3.72;;;11.70;99.90;;;;;;6248634;22;20016;-82
2022/01/02 07:55:10;;;;;;;15.30;4.28;;;11.80;99.90;;;;;;6249286;22;20012;-83
2022/01/02 07:57:38;;;;;;;16.45;4.38;;;11.70;99.90;;;;;;6249449;22;20150;-84
2022/01/02 08:00:05;;;;;;;13.70;4.00;;;11.70;99.90;;;;;;6248525;22;20361;-88
2022/01/02 08:02:34;;;;;;;19.35;4.57;;;11.70;99.90;;;;;;6248113;22;20094;-84
2022/01/02 08:05:00;;;;;;;16.33;4.32;;;11.60;99.90;;;;;;6248958;22;20126;-86
2022/01/02 08:07:26;;;;;;;15.20;4.63;;;11.70;99.90;;;;;;6248412;22;20126;-84
2022/01/02 08:09:55;;;;;;;15.45;4.78;;;11.70;99.90;;;;;;6247954;22;20428;-86
2022/01/02 08:12:24;;;;;;;13.60;4.88;;;11.70;99.90;;;;;;6248130;22;20011;-84
2022/01/02 08:14:52;;;;;;;18.23;4.93;;;11.80;99.90;;;;;;6248420;22;20012;-84
2022/01/02 08:17:18;;;;;;;29.65;5.15;;;12.20;99.90;;;;;;6246903;22;20095;-84
2022/01/02 08:19:44;;;;;;;17.00;5.10;;;11.70;99.90;;;;;;6248190;22;20103;-84
2022/01/02 08:22:10;;;;;;;17.92;5.22;;;11.60;99.90;;;;;;6273122;22;20145;-84
2022/01/02 08:24:36;;;;;;;15.20;4.25;;;11.60;99.90;;;;;;6273781;22;20431;-82
2022/01/02 08:27:01;;;;;;;15.93;5.57;;;11.60;99.90;;;;;;6272986;22;20011;-85
2022/01/02 08:29:27;;;;;;;20.20;5.10;;;11.60;99.90;;;;;;6275721;22;20065;-82
2022/01/02 08:31:52;;;;;;;13.77;5.50;;;11.70;99.90;;;;;;6247704;22;20007;-83
2022/01/02 08:34:18;;;;;;;11.85;4.70;;;11.50;99.90;;;;;;6273422;22;20012;-81
2022/01/02 08:36:44;;;;;;;17.10;5.30;;;11.90;99.90;;;;;;6272865;22;20073;-81
2022/01/02 08:39:09;;;;;;;16.33;5.85;;;11.60;99.90;;;;;;6272016;22;20095;-79
2022/01/02 08:41:35;;;;;;;15.35;4.72;;;11.50;99.90;;;;;;6273062;22;20047;-81
2022/01/02 08:44:01;;;;;;;15.88;5.55;;;11.60;99.90;;;;;;6273369;22;20074;-82
2022/01/02 08:46:26;;;;;;;11.75;4.97;;;11.50;99.90;;;;;;6246309;22;20047;-80
2022/01/02 08:48:52;;;;;;;12.82;4.72;;;11.90;99.90;;;;;;6270685;22;20012;-80
2022/01/02 08:51:18;;;;;;;13.38;4.85;;;12.20;99.90;;;;;;6270338;22;20050;-80
2022/01/02 08:53:43;;;;;;;11.30;4.63;;;11.50;99.90;;;;;;6244301;22;20020;-80
2022/01/02 08:56:11;;;;;;;13.52;4.97;;;11.50;99.90;;;;;;6270973;22;20058;-82
2022/01/02 08:58:36;;;;;;;9.20;4.38;;;11.50;99.90;;;;;;6271615;22;20316;-82
2022/01/02 09:01:02;;;;;;;11.73;5.20;;;11.40;99.90;;;;;;6244465;22;20045;-84
2022/01/02 09:03:29;;;;;;;12.85;5.18;;;11.40;99.90;;;;;;6273044;22;20105;-84
2022/01/02 09:05:55;;;;;;;14.75;4.65;;;11.40;99.90;;;;;;6245996;22;20023;-83
2022/01/02 09:08:21;;;;;;;8.50;3.72;;;11.40;99.90;;;;;;6269652;22;20027;-80
2022/01/02 09:10:46;;;;;;;11.05;4.25;;;11.40;99.90;;;;;;6268966;22;20027;-80
2022/01/02 09:13:12;;;;;;;9.73;4.30;;;11.30;99.90;;;;;;6245207;22;20011;-81
2022/01/02 09:15:38;;;;;;;12.27;4.75;;;11.30;99.90;;;;;;6269009;22;20008;-81
2022/01/02 09:18:05;;;;;;;15.45;5.20;;;11.70;99.90;;;;;;6271104;22;20016;-84
2022/01/02 09:20:31;;;;;;;14.63;5.80;;;11.80;99.90;;;;;;6245280;22;20040;-83
2022/01/02 09:22:57;;;;;;;13.90;6.00;;;11.20;99.90;;;;;;6271260;22;20422;-85
2022/01/02 09:25:23;;;;;;;14.27;6.38;;;11.20;99.90;;;;;;6270060;22;20015;-84
2022/01/02 09:27:48;;;;;;;15.63;6.10;;;11.20;99.90;;;;;;6271467;22;20092;-85
2022/01/02 09:30:14;;;;;;;16.20;6.55;;;11.60;99.90;;;;;;6272529;22;20023;-86
2022/01/02 09:32:41;;;;;;;15.35;6.05;;;11.60;99.90;;;;;;6246994;22;20047;-87
2022/01/02 09:35:09;;;;;;;12.18;6.47;;;11.20;99.90;;;;;;6272068;22;20057;-79
2022/01/02 09:37:34;;;;;;;10.77;5.97;;;11.30;99.90;;;;;;6244984;22;20012;-81
2022/01/02 09:40:07;;;;;;;12.93;6.00;;;11.20;99.90;;;;;;6245796;22;20037;-82
2022/01/02 09:42:38;;;;;;;11.95;6.07;;;11.20;99.90;;;;;;6221465;22;20011;-86
2022/01/02 09:45:04;;;;;;;15.05;6.28;;;11.70;99.90;;;;;;6273162;22;20018;-87
2022/01/02 09:47:32;;;;;;;21.10;6.82;;;11.30;99.90;;;;;;6273413;22;20007;-80
2022/01/02 09:50:03;;;;;;;16.08;6.28;;;11.20;99.90;;;;;;6275518;22;20050;-81
2022/01/02 09:52:29;;;;;;;19.00;7.28;;;11.30;99.90;;;;;;6247171;22;20015;-82
2022/01/02 09:54:54;;;;;;;16.80;6.82;;;11.30;99.90;;;;;;6272166;22;20023;-77
2022/01/02 09:57:20;;;;;;;18.13;6.97;;;11.20;99.90;;;;;;6266940;22;20336;-85
2022/01/02 09:59:46;;;;;;;24.80;8.55;;;11.20;99.90;;;;;;6274848;22;20137;-79
2022/01/02 10:02:11;;;;;;;16.35;8.00;;;11.20;99.90;;;;;;6244687;22;20316;-80
2022/01/02 10:04:39;;;;;;;14.88;7.50;;;11.20;99.90;;;;;;6245193;22;20415;-80
2022/01/02 10:07:23;;;;;;;17.15;7.43;;;11.20;99.90;;;;;;6245379;22;20281;-81
2022/01/02 10:09:50;;;;;;;21.50;7.43;;;11.10;99.90;;;;;;6270256;22;20062;-81
2022/01/02 10:12:25;;;;;;;17.48;6.82;;;11.10;99.90;;;;;;6248054;22;20016;-82
2022/01/02 10:15:19;;;;;;;18.25;7.03;;;11.10;99.90;;;;;;6246370;22;20019;-79
2022/01/02 10:18:06;;;;;;;16.98;7.47;;;11.10;99.90;;;;;;6247047;22;20029;-82
2022/01/02 10:20:35;;;;;;;20.13;7.25;;;11.10;99.90;;;;;;6273531;22;20088;-80
2022/01/02 10:23:07;;;;;;;17.15;6.95;;;11.20;99.90;;;;;;6273158;22;20082;-81
2022/01/02 10:25:59;;;;;;;15.55;7.50;;;11.10;99.90;;;;;;6270026;22;20024;-82
2022/01/02 10:28:31;;;;;;;17.23;7.53;;;11.10;99.90;;;;;;6148489;23;20073;-86
2022/01/02 10:31:34;;;;;;;15.57;6.97;;;11.60;99.90;;;;;;6099014;23;20056;-87
2022/01/02 10:34:00;;;;;;;21.20;7.13;;;11.70;99.90;;;;;;6101201;23;20088;-88
2022/01/02 10:36:30;;;;;;;16.38;7.05;;;11.20;99.90;;;;;;6101287;23;20427;-84
2022/01/02 10:39:05;;;;;;;24.27;6.95;;;11.30;99.90;;;;;;6099113;23;20103;-82
2022/01/02 10:41:33;;;;;;;20.38;7.13;;;11.30;99.90;;;;;;6126600;23;20497;-86
2022/01/02 10:44:17;;;;;;;21.23;7.55;;;11.30;99.90;;;;;;6150530;23;20056;-87
2022/01/02 10:47:08;;;;;;;17.70;6.32;;;11.70;99.90;;;;;;6124432;23;20840;-88
2022/01/02 10:50:07;;;;;;;17.58;6.25;;;11.40;99.90;;;;;;6123868;23;20445;-84
2022/01/02 10:52:36;;;;;;;23.08;7.18;;;11.80;99.90;;;;;;6097346;23;20116;-83
2022/01/02 10:55:14;;;;;;;23.00;6.32;;;11.50;99.90;;;;;;6124704;23;20022;-82
2022/01/02 10:57:47;;;;;;;15.05;6.15;;;11.40;99.90;;;;;;6124967;23;20057;-84
2022/01/02 11:00:15;;;;;;;20.55;6.65;;;11.50;99.90;;;;;;6101118;23;20009;-82
2022/01/02 11:02:41;;;;;;;17.10;6.20;;;11.40;99.90;;;;;;6101536;23;20438;-81
2022/01/02 11:05:09;;;;;;;21.63;5.68;;;11.50;99.90;;;;;;6181291;22;20098;-82
2022/01/02 11:07:42;;;;;;;22.83;5.00;;;11.50;99.90;;;;;;6245681;22;20012;-85
2022/01/02 11:10:14;;;;;;;21.60;5.80;;;11.50;99.90;;;;;;6270026;22;20074;-83
2022/01/02 11:12:41;;;;;;;16.83;5.03;;;11.60;99.90;;;;;;6246575;22;20435;-78
2022/01/02 11:15:13;;;;;;;19.02;5.18;;;11.50;99.90;;;;;;6273129;22;20042;-82
2022/01/02 11:17:38;;;;;;;16.55;5.32;;;11.60;99.90;;;;;;6274685;22;20114;-80
2022/01/02 11:20:10;;;;;;;18.63;4.80;;;11.70;99.90;;;;;;6249055;22;20123;-81
2022/01/02 11:22:48;;;;;;;12.80;4.60;;;11.70;99.90;;;;;;6274697;22;20015;-81
2022/01/02 11:25:26;;;;;;;20.50;4.38;;;11.70;99.90;;;;;;6274876;22;20498;-82
2022/01/02 11:27:59;;;;;;;17.38;4.78;;;11.70;99.90;;;;;;6276422;22;20432;-82
2022/01/02 11:30:32;;;;;;;19.55;4.85;;;12.30;99.90;;;;;;6274221;22;20023;-83
2022/01/02 11:33:14;;;;;;;23.55;5.50;;;11.80;99.90;;;;;;6247423;22;20035;-81
2022/01/02 11:35:44;;;;;;;14.35;4.93;;;11.70;99.90;;;;;;6273028;22;20016;-81
2022/01/02 11:38:10;;;;;;;17.88;4.57;;;11.70;99.90;;;;;;6274390;22;20090;-80
2022/01/02 11:40:57;;;;;;;13.82;4.47;;;11.70;99.90;;;;;;6248623;22;20012;-82
2022/01/02 11:43:47;;;;;;;17.75;5.30;;;11.70;99.90;;;;;;6272983;22;20079;-81
2022/01/02 11:46:50;;;;;;;21.13;4.15;;;11.70;99.90;;;;;;6246837;22;20029;-80
2022/01/02 11:49:19;;;;;;;15.60;4.20;;;11.70;99.90;;;;;;6242599;22;20046;-81
2022/01/02 11:51:47;;;;;;;13.43;4.53;;;11.60;99.90;;;;;;6276558;22;20007;-84
2022/01/02 11:57:26;;;;;;;17.13;4.57;;;11.60;99.90;;;;;;6274018;22;20020;-82
2022/01/02 11:59:53;;;;;;;15.55;4.03;;;11.70;99.90;;;;;;6273410;22;20012;-81
2022/01/02 12:02:39;;;;;;;19.63;4.35;;;11.60;99.90;;;;;;6273837;22;20007;-83
2022/01/02 12:05:15;;;;;;;14.75;3.63;;;11.60;99.90;;;;;;6276145;22;20489;-84
2022/01/02 12:07:45;;;;;;;18.08;4.25;;;11.60;99.90;;;;;;6250805;22;20011;-83
2022/01/02 12:10:16;;;;;;;15.93;4.13;;;11.70;99.90;;;;;;6277300;22;20093;-83
2022/01/02 12:13:05;;;;;;;15.85;4.05;;;11.50;99.90;;;;;;6275232;22;20018;-83
2022/01/02 12:15:34;;;;;;;19.00;4.38;;;11.60;99.90;;;;;;6249005;22;20039;-82
2022/01/02 12:18:25;;;;;;;19.77;4.22;;;11.60;99.90;;;;;;6272544;22;20020;-82
2022/01/02 12:21:00;;;;;;;16.85;4.22;;;11.50;99.90;;;;;;6274649;22;20012;-83
2022/01/02 12:23:42;;;;;;;18.05;3.65;;;11.50;99.90;;;;;;6249033;22;20007;-83
2022/01/02 12:26:10;;;;;;;18.73;4.13;;;11.50;99.90;;;;;;6246881;22;20015;-80
2022/01/02 12:28:48;;;;;;;20.70;4.45;;;11.50;99.90;;;;;;6273682;22;20023;-81
2022/01/02 12:31:19;;;;;;;15.32;3.40;;;11.50;99.90;;;;;;6272622;22;20031;-81
2022/01/02 12:33:45;;;;;;;17.30;3.30;;;11.50;99.90;;;;;;6247386;22;20046;-82
2022/01/02 12:36:14;;;;;;;17.38;3.42;;;11.60;99.90;;;;;;6272657;22;20019;-81
2022/01/02 12:39:01;;;;;;;19.38;3.28;;;11.60;99.90;;;;;;6273402;22;20082;-80
2022/01/02 12:41:33;;;;;;;18.00;3.33;;;11.60;99.90;;;;;;6272175;22;20086;-82
2022/01/02 12:44:09;;;;;;;9.88;1.83;;;11.60;99.90;;;;;;6247314;22;20015;-83
2022/01/02 12:46:48;;;;;;;16.98;3.17;;;11.50;99.90;;;;;;6271286;22;20050;-80
2022/01/02 12:49:21;;;;;;;16.65;2.90;;;11.60;99.90;;;;;;6273072;22;20020;-82
2022/01/02 12:51:49;;;;;;;14.10;2.92;;;11.60;99.90;;;;;;6273125;22;20022;-83
2022/01/02 12:54:20;;;;;;;16.63;2.97;;;11.60;99.90;;;;;;6273490;22;20022;-82
2022/01/02 12:56:49;;;;;;;20.95;3.20;;;11.60;99.90;;;;;;6274043;22;20526;-80
2022/01/02 12:59:28;;;;;;;20.52;3.28;;;11.50;99.90;;;;;;6274215;22;20042;-83
2022/01/02 13:02:19;;;;;;;20.10;3.63;;;11.60;99.90;;;;;;6273432;22;20027;-85
2022/01/02 13:04:47;;;;;;;13.88;2.20;;;11.60;99.90;;;;;;6126657;23;20014;-80
2022/01/02 13:07:15;;;;;;;15.25;2.72;;;11.60;99.90;;;;;;6101590;23;20013;-82
2022/01/02 13:10:05;;;;;;;17.63;2.90;;;11.50;99.90;;;;;;6101296;23;20037;-83
2022/01/02 13:12:36;;;;;;;11.52;2.58;;;11.60;99.90;;;;;;6126774;23;20021;-81
2022/01/02 13:15:10;;;;;;;18.83;3.25;;;11.50;99.90;;;;;;6126487;23;20548;-83
2022/01/02 13:17:40;;;;;;;12.03;2.30;;;11.40;99.90;;;;;;6101877;23;20016;-82
2022/01/02 13:20:07;;;;;;;18.33;2.80;;;11.50;99.90;;;;;;6127370;23;20859;-82
2022/01/02 13:22:35;;;;;;;12.18;2.08;;;11.50;99.90;;;;;;6127139;23;20024;-82
2022/01/02 13:25:10;;;;;;;23.20;2.65;;;11.90;99.90;;;;;;6102842;23;20291;-83
2022/01/02 13:28:05;;;;;;;17.40;2.35;;;11.40;99.90;;;;;;6102569;23;20024;-83
2022/01/02 13:30:39;;;;;;;17.85;2.15;;;11.30;99.90;;;;;;6151444;23;20016;-83
2022/01/02 13:33:24;;;;;;;14.73;1.98;;;11.30;99.90;;;;;;6102688;23;20056;-82
2022/01/02 13:35:51;;;;;;;14.93;2.57;;;11.20;99.90;;;;;;6126491;23;20091;-82
2022/01/02 13:38:18;;;;;;;16.27;2.33;;;11.40;99.90;;;;;;6102220;23;20018;-83
2022/01/02 13:40:44;;;;;;;8.65;1.70;;;11.30;99.90;;;;;;6114332;22;20080;-82
2022/01/02 13:43:14;;;;;;;11.75;2.00;;;11.20;99.90;;;;;;6275635;22;20022;-83
2022/01/02 13:45:47;;;;;;;14.13;2.58;;;11.80;99.90;;;;;;6274580;22;20055;-84
2022/01/02 13:48:57;;;;;;;13.80;2.38;;;11.20;99.90;;;;;;6247615;22;20428;-83
2022/01/02 13:51:25;;;;;;;8.93;1.73;;;10.10;99.90;;;;;;6272374;22;20443;-82
2022/01/02 13:53:51;;;;;;;16.77;2.40;;;11.00;99.90;;;;;;6275314;22;20043;-81
2022/01/02 13:56:20;;;;;;;14.82;2.30;;;11.00;99.90;;;;;;6274031;22;20019;-81
2022/01/02 13:58:51;;;;;;;14.48;2.42;;;11.10;99.90;;;;;;6273528;22;20057;-81
2022/01/02 14:01:22;;;;;;;15.25;2.17;;;11.10;99.90;;;;;;6273199;22;20061;-80
2022/01/02 14:03:58;;;;;;;11.70;2.40;;;11.00;99.90;;;;;;6247405;22;20008;-81
2022/01/02 14:06:29;;;;;;;17.38;2.83;;;11.00;99.90;;;;;;6271861;22;20015;-78
2022/01/02 14:08:55;;;;;;;12.00;2.35;;;10.90;99.90;;;;;;6271625;22;20016;-78
2022/01/02 14:11:29;;;;;;;12.35;2.67;;;11.00;99.90;;;;;;6271352;22;20012;-77
2022/01/02 14:14:06;;;;;;;11.73;2.05;;;10.90;99.90;;;;;;6272089;22;20095;-82
2022/01/02 14:19:47;;;;;;;9.27;1.83;;;10.90;99.90;;;;;;6272477;22;20105;-83
2022/01/02 14:22:18;;;;;;;14.80;2.10;;;10.90;99.90;;;;;;6271718;22;20104;-86
2022/01/02 14:24:45;;;;;;;16.05;2.47;;;10.80;99.90;;;;;;6271313;22;20507;-81
2022/01/02 14:27:15;;;;;;;19.85;2.30;;;10.80;99.90;;;;;;6245883;22;20015;-81
2022/01/02 14:29:41;;;;;;;16.02;2.33;;;11.30;99.90;;;;;;6246025;22;20019;-78
2022/01/02 14:32:07;;;;;;;14.55;2.00;;;10.80;99.90;;;;;;6269621;22;20011;-79
2022/01/02 14:34:32;;;;;;;16.42;3.38;;;10.80;99.90;;;;;;6270977;22;20020;-79